createdAt,value
2023-02-23T00:01:58.714Z,44.42
2023-02-23T00:04:25.290Z,41.60
2023-02-23T00:06:53.418Z,40.80
2023-02-23T00:09:23.788Z,44.50
2023-02-23T00:11:53.078Z,42.63
2023-02-23T00:14:27.455Z,39.72
2023-02-23T00:16:55.900Z,40.45
2023-02-23T00:19:24.840Z,39.58
2023-02-23T00:21:52.159Z,44.80
2023-02-23T00:24:23.156Z,40.90
2023-02-23T00:26:51.545Z,41.75
2023-02-23T00:29:21.231Z,43.20
2023-02-23T00:31:49.850Z,41.50
2023-02-23T00:34:24.120Z,42.13
2023-02-23T00:36:55.431Z,41.87
2023-02-23T00:39:25.161Z,45.38
2023-02-23T00:41:52.891Z,45.28
2023-02-23T00:44:21.792Z,47.20
2023-02-23T00:46:51.493Z,42.40
2023-02-23T00:49:19.104Z,43.07
2023-02-23T00:51:47.090Z,45.03
2023-02-23T00:54:15.550Z,44.33
2023-02-23T00:56:42.927Z,47.28
2023-02-23T00:59:10.785Z,47.33
2023-02-23T01:01:38.546Z,49.23
2023-02-23T01:04:06.281Z,40.42
2023-02-23T01:06:33.935Z,49.17
2023-02-23T01:09:05.282Z,43.90
2023-02-23T01:11:32.056Z,41.28
2023-02-23T01:13:59.880Z,49.93
2023-02-23T01:16:29.671Z,46.30
2023-02-23T01:18:58.398Z,48.58
2023-02-23T01:21:28.461Z,52.83
2023-02-23T01:23:55.955Z,45.47
2023-02-23T01:26:34.096Z,48.93
2023-02-23T01:29:09.096Z,45.70
2023-02-23T01:31:37.803Z,44.28
2023-02-23T01:34:06.170Z,45.40
2023-02-23T01:36:37.325Z,45.78
2023-02-23T01:39:07.754Z,45.40
2023-02-23T01:41:37.625Z,41.60
2023-02-23T01:44:07.928Z,48.78
2023-02-23T01:46:39.076Z,46.60
2023-02-23T01:49:09.189Z,45.67
2023-02-23T01:51:41.269Z,44.57
2023-02-23T01:54:16.018Z,45.83
2023-02-23T01:56:47.601Z,46.67
2023-02-23T01:59:16.466Z,42.60
2023-02-23T02:01:43.900Z,42.55
2023-02-23T02:04:16.634Z,46.30
2023-02-23T02:06:45.742Z,47.20
2023-02-23T02:09:19.585Z,48.22
2023-02-23T02:11:46.569Z,46.15
2023-02-23T02:14:14.524Z,51.17
2023-02-23T02:16:43.793Z,46.77
2023-02-23T02:19:18.710Z,46.60
2023-02-23T02:22:04.867Z,49.30
2023-02-23T02:24:41.626Z,47.00
2023-02-23T02:27:17.134Z,45.72
2023-02-23T02:30:21.652Z,46.77
2023-02-23T02:33:06.933Z,46.47
2023-02-23T02:36:05.347Z,45.67
2023-02-23T02:38:55.207Z,44.65
2023-02-23T02:41:53.718Z,44.85
2023-02-23T02:44:39.114Z,49.27
2023-02-23T02:47:12.129Z,47.58
2023-02-23T02:49:52.037Z,46.17
2023-02-23T02:52:33.285Z,47.47
2023-02-23T02:55:09.406Z,46.75
2023-02-23T02:57:37.315Z,46.43
2023-02-23T03:00:23.018Z,46.85
2023-02-23T03:03:07.796Z,48.50
2023-02-23T03:06:04.103Z,47.63
2023-02-23T03:09:07.172Z,47.83
2023-02-23T03:12:03.470Z,46.57
2023-02-23T03:15:08.201Z,46.80
2023-02-23T03:18:12.106Z,46.50
2023-02-23T03:21:12.593Z,47.50
2023-02-23T03:24:24.799Z,51.17
2023-02-23T03:27:18.080Z,52.33
2023-02-23T03:30:02.899Z,43.42
2023-02-23T03:32:54.532Z,49.17
2023-02-23T03:35:49.500Z,46.08
2023-02-23T03:38:59.425Z,44.53
2023-02-23T03:41:46.933Z,48.97
2023-02-23T03:44:36.814Z,52.67
2023-02-23T03:47:24.644Z,50.42
2023-02-23T03:50:12.850Z,45.25
2023-02-23T03:53:09.211Z,46.80
2023-02-23T03:56:01.190Z,40.20
2023-02-23T03:58:56.191Z,47.47
2023-02-23T04:01:47.959Z,45.83
2023-02-23T04:04:32.955Z,46.60
2023-02-23T04:07:21.283Z,42.20
2023-02-23T04:10:07.968Z,44.30
2023-02-23T04:13:00.638Z,45.17
2023-02-23T04:15:33.751Z,44.95
2023-02-23T04:18:00.879Z,48.33
2023-02-23T04:20:27.476Z,41.05
2023-02-23T04:22:55.101Z,43.13
2023-02-23T04:25:24.522Z,44.05
2023-02-23T04:27:51.170Z,42.05
2023-02-23T04:30:18.611Z,43.70
2023-02-23T04:32:46.058Z,43.78
2023-02-23T04:35:13.710Z,46.20
2023-02-23T04:37:40.241Z,43.47
2023-02-23T04:40:07.856Z,40.80
2023-02-23T04:42:34.358Z,47.60
2023-02-23T04:45:00.814Z,45.97
2023-02-23T04:47:29.924Z,45.80
2023-02-23T04:49:56.687Z,41.53
2023-02-23T04:52:23.887Z,45.08
2023-02-23T04:54:50.570Z,48.47
2023-02-23T04:57:17.233Z,45.15
2023-02-23T04:59:43.771Z,47.87
2023-02-23T05:02:10.432Z,47.95
2023-02-23T05:04:37.019Z,45.75
2023-02-23T05:07:04.856Z,43.38
2023-02-23T05:09:31.752Z,48.28
2023-02-23T05:11:58.865Z,44.37
2023-02-23T05:14:25.775Z,47.15
2023-02-23T05:16:52.763Z,49.47
2023-02-23T05:19:19.572Z,46.85
2023-02-23T05:21:46.173Z,45.65
2023-02-23T05:24:12.818Z,48.47
2023-02-23T05:26:39.943Z,44.40
2023-02-23T05:29:06.662Z,46.50
2023-02-23T05:31:33.341Z,44.22
2023-02-23T05:33:59.911Z,48.97
2023-02-23T05:36:31.655Z,44.70
2023-02-23T05:38:58.336Z,46.33
2023-02-23T05:41:24.967Z,47.20
2023-02-23T05:43:53.645Z,46.58
2023-02-23T05:46:24.176Z,44.55
2023-02-23T05:48:55.092Z,45.17
2023-02-23T05:51:22.163Z,49.50
2023-02-23T05:53:48.803Z,46.58
2023-02-23T05:56:20.903Z,42.63
2023-02-23T05:58:55.208Z,46.97
2023-02-23T06:01:22.596Z,44.87
2023-02-23T06:03:50.397Z,41.85
2023-02-23T06:06:17.747Z,45.17
2023-02-23T06:08:44.602Z,43.45
2023-02-23T06:11:11.551Z,48.28
2023-02-23T06:13:38.156Z,48.73
2023-02-23T06:16:05.170Z,50.63
2023-02-23T06:18:31.642Z,44.72
2023-02-23T06:21:02.450Z,41.03
2023-02-23T06:23:30.146Z,43.58
2023-02-23T06:25:56.812Z,45.03
2023-02-23T06:28:23.638Z,48.33
2023-02-23T06:30:54.234Z,45.00
2023-02-23T06:33:21.130Z,40.90
2023-02-23T06:35:47.644Z,39.78
2023-02-23T06:38:15.247Z,42.53
2023-02-23T06:40:42.027Z,39.15
2023-02-23T06:43:08.863Z,38.22
2023-02-23T06:45:35.503Z,40.03
2023-02-23T06:48:02.160Z,42.75
2023-02-23T06:50:28.823Z,42.13
2023-02-23T06:52:57.643Z,44.50
2023-02-23T06:55:24.566Z,41.28
2023-02-23T06:57:51.899Z,35.80
2023-02-23T07:00:18.964Z,39.40
2023-02-23T07:02:45.854Z,36.60
2023-02-23T07:05:12.489Z,40.67
2023-02-23T07:07:39.538Z,39.63
2023-02-23T07:10:07.525Z,41.47
2023-02-23T07:12:34.174Z,33.78
2023-02-23T07:15:00.816Z,36.83
2023-02-23T07:17:27.304Z,39.92
2023-02-23T07:19:53.863Z,41.78
2023-02-23T07:22:20.899Z,37.88
2023-02-23T07:24:48.225Z,40.90
2023-02-23T07:27:14.785Z,36.43
2023-02-23T07:29:43.516Z,36.13
2023-02-23T07:32:10.368Z,36.88
2023-02-23T07:34:37.896Z,41.00
2023-02-23T07:37:04.359Z,42.17
2023-02-23T07:39:31.238Z,40.63
2023-02-23T07:41:58.505Z,41.35
2023-02-23T07:44:25.041Z,41.38
2023-02-23T07:46:52.880Z,41.00
2023-02-23T07:49:21.570Z,43.20
2023-02-23T07:51:48.131Z,47.37
2023-02-23T07:54:15.682Z,50.40
2023-02-23T07:56:42.530Z,45.50
2023-02-23T07:59:09.284Z,45.83
2023-02-23T08:01:36.142Z,51.90
2023-02-23T08:04:02.742Z,49.93
2023-02-23T08:06:30.640Z,46.05
2023-02-23T08:09:00.656Z,48.28
2023-02-23T08:11:30.077Z,45.17
2023-02-23T08:14:00.426Z,52.53
2023-02-23T08:16:28.658Z,48.33
2023-02-23T08:18:58.289Z,47.78
2023-02-23T08:21:25.635Z,43.30
2023-02-23T08:23:52.275Z,47.55
2023-02-23T08:26:22.210Z,45.53
2023-02-23T08:28:48.933Z,45.30
2023-02-23T08:31:18.897Z,44.78
2023-02-23T08:33:46.893Z,43.65
2023-02-23T08:36:13.721Z,47.90
2023-02-23T08:38:40.275Z,46.13
2023-02-23T08:41:07.005Z,42.40
2023-02-23T08:43:33.632Z,45.95
2023-02-23T08:46:00.332Z,45.90
2023-02-23T08:48:27.141Z,43.70
2023-02-23T08:50:58.468Z,45.70
2023-02-23T08:53:29.598Z,44.00
2023-02-23T08:56:00.746Z,44.65
2023-02-23T08:58:28.911Z,36.78
2023-02-23T09:00:55.417Z,41.80
2023-02-23T09:03:23.368Z,42.78
2023-02-23T09:05:50.164Z,39.40
2023-02-23T09:08:16.760Z,42.85
2023-02-23T09:10:46.282Z,43.53
2023-02-23T09:13:13.514Z,40.85
2023-02-23T09:15:40.701Z,37.22
2023-02-23T09:18:08.546Z,36.20
2023-02-23T09:20:35.060Z,40.03
2023-02-23T09:23:01.569Z,42.70
2023-02-23T09:25:29.414Z,39.63
2023-02-23T09:27:59.888Z,35.50
2023-02-23T09:30:27.532Z,35.30
2023-02-23T09:32:55.339Z,36.97
2023-02-23T09:35:24.278Z,38.42
2023-02-23T09:37:53.571Z,33.05
2023-02-23T09:40:29.053Z,36.63
2023-02-23T09:43:07.624Z,33.87
2023-02-23T09:45:43.218Z,33.60
2023-02-23T09:48:19.372Z,32.42
2023-02-23T09:50:52.996Z,27.98
2023-02-23T09:53:43.003Z,30.48
2023-02-23T09:56:24.604Z,31.57
2023-02-23T09:58:51.300Z,31.08
2023-02-23T10:01:36.100Z,28.13
2023-02-23T10:04:27.307Z,26.45
2023-02-23T10:07:01.015Z,31.15
2023-02-23T10:09:46.989Z,31.60
2023-02-23T10:12:16.186Z,28.70
2023-02-23T10:15:14.349Z,32.72
2023-02-23T10:17:53.007Z,28.48
2023-02-23T10:20:38.351Z,26.55
2023-02-23T10:23:09.624Z,29.30
2023-02-23T10:25:43.138Z,32.60
2023-02-23T10:28:16.461Z,25.08
2023-02-23T10:30:44.358Z,26.60
2023-02-23T10:33:32.444Z,25.73
2023-02-23T10:36:13.732Z,29.27
2023-02-23T10:38:41.139Z,27.70
2023-02-23T10:41:09.146Z,27.23
2023-02-23T10:43:35.885Z,27.88
2023-02-23T10:46:02.639Z,28.40
2023-02-23T10:48:43.147Z,26.37
2023-02-23T10:51:20.481Z,24.45
2023-02-23T10:53:47.271Z,24.70
2023-02-23T10:56:17.012Z,22.95
2023-02-23T10:58:48.075Z,24.60
2023-02-23T11:01:35.972Z,21.80
2023-02-23T11:04:21.032Z,20.65
2023-02-23T11:06:49.583Z,20.25
2023-02-23T11:09:45.085Z,25.70
2023-02-23T11:12:22.052Z,19.23
2023-02-23T11:14:50.638Z,20.83
2023-02-23T11:17:30.327Z,21.67
2023-02-23T11:20:03.867Z,25.40
2023-02-23T11:22:36.956Z,23.38
2023-02-23T11:25:24.690Z,19.52
2023-02-23T11:27:53.118Z,21.03
2023-02-23T11:30:42.917Z,18.70
2023-02-23T11:33:16.879Z,21.08
2023-02-23T11:35:43.457Z,17.88
2023-02-23T11:38:23.803Z,20.33
2023-02-23T11:41:01.556Z,21.40
2023-02-23T11:43:28.369Z,19.30
2023-02-23T11:46:00.758Z,15.50
2023-02-23T11:48:49.624Z,18.55
2023-02-23T11:51:34.228Z,17.67
2023-02-23T11:54:05.528Z,16.13
2023-02-23T11:56:34.501Z,17.70
2023-02-23T11:59:04.710Z,18.42
2023-02-23T12:01:51.221Z,16.30
2023-02-23T12:04:38.755Z,15.80
2023-02-23T12:07:56.562Z,16.90
2023-02-23T12:10:31.023Z,24.02
2023-02-23T12:13:08.173Z,21.52
2023-02-23T12:15:45.143Z,22.48
2023-02-23T12:18:53.233Z,18.90
2023-02-23T12:21:44.613Z,20.70
2023-02-23T12:24:42.606Z,22.17
2023-02-23T12:27:34.022Z,18.30
2023-02-23T12:30:39.619Z,21.05
2023-02-23T12:33:15.333Z,19.70
2023-02-23T12:35:59.503Z,21.83
2023-02-23T12:38:46.455Z,22.05
2023-02-23T12:41:19.090Z,19.40
2023-02-23T12:43:52.384Z,18.92
2023-02-23T12:46:26.239Z,21.40
2023-02-23T12:49:46.609Z,19.43
2023-02-23T12:52:20.179Z,19.75
2023-02-23T12:54:47.342Z,16.23
2023-02-23T12:57:35.096Z,14.75
2023-02-23T13:00:30.415Z,18.20
2023-02-23T13:03:24.935Z,20.53
2023-02-23T13:06:04.315Z,16.92
2023-02-23T13:08:51.672Z,16.77
2023-02-23T13:12:03.070Z,17.20
2023-02-23T13:14:51.565Z,15.70
2023-02-23T13:17:40.550Z,20.73
2023-02-23T13:20:21.519Z,17.55
2023-02-23T13:23:09.586Z,19.45
2023-02-23T13:25:45.354Z,16.95
2023-02-23T13:28:28.326Z,18.17
2023-02-23T13:30:55.347Z,17.70
2023-02-23T13:33:41.914Z,16.65
2023-02-23T13:36:12.895Z,16.17
2023-02-23T13:38:47.679Z,17.00
2023-02-23T13:41:30.824Z,12.65
2023-02-23T13:44:26.441Z,17.43
2023-02-23T13:47:10.481Z,16.73
2023-02-23T13:49:49.450Z,22.70
2023-02-23T13:52:41.983Z,14.93
2023-02-23T13:55:46.909Z,16.73
2023-02-23T13:58:19.386Z,13.63
2023-02-23T14:00:54.726Z,16.85
2023-02-23T14:03:29.178Z,19.77
2023-02-23T14:06:00.366Z,15.38
2023-02-23T14:08:36.625Z,18.23
2023-02-23T14:11:04.181Z,18.17
2023-02-23T14:13:34.732Z,15.05
2023-02-23T14:16:17.411Z,16.63
2023-02-23T14:19:10.383Z,17.25
2023-02-23T14:21:52.470Z,14.77
2023-02-23T14:24:27.778Z,13.87
2023-02-23T14:27:38.438Z,13.50
2023-02-23T14:30:15.089Z,15.18
2023-02-23T14:32:43.379Z,18.48
2023-02-23T14:35:47.881Z,18.65
2023-02-23T14:38:38.770Z,24.40
2023-02-23T14:41:12.790Z,20.60
2023-02-23T14:43:42.795Z,20.33
2023-02-23T14:46:25.210Z,21.73
2023-02-23T14:49:12.454Z,19.65
2023-02-23T14:51:52.281Z,25.00
2023-02-23T14:54:31.747Z,22.13
2023-02-23T14:57:01.165Z,28.17
2023-02-23T14:59:36.210Z,23.65
2023-02-23T15:02:11.688Z,27.70
2023-02-23T15:04:39.730Z,24.77
2023-02-23T15:07:07.268Z,26.50
2023-02-23T15:09:42.100Z,27.88
2023-02-23T15:12:16.825Z,30.67
2023-02-23T15:14:43.973Z,30.38
2023-02-23T15:17:17.993Z,38.30
2023-02-23T15:19:45.958Z,34.60
2023-02-23T15:22:24.316Z,32.03
2023-02-23T15:24:50.949Z,23.90
2023-02-23T15:27:28.530Z,15.70
2023-02-23T15:29:58.457Z,13.77
2023-02-23T15:32:26.499Z,12.77
2023-02-23T15:35:03.615Z,14.05
2023-02-23T15:37:39.654Z,13.80
2023-02-23T15:40:24.382Z,15.35
2023-02-23T15:42:57.641Z,16.73
2023-02-23T15:45:30.377Z,15.27
2023-02-23T15:48:22.808Z,13.88
2023-02-23T15:50:53.239Z,13.75
2023-02-23T15:53:33.486Z,17.33
2023-02-23T15:56:12.662Z,17.00
2023-02-23T15:58:56.142Z,17.23
2023-02-23T16:01:26.211Z,9.43
2023-02-23T16:04:16.777Z,10.25
2023-02-23T16:06:52.285Z,13.77
2023-02-23T16:09:22.294Z,9.17
2023-02-23T16:11:52.518Z,15.98
2023-02-23T16:14:21.198Z,9.48
2023-02-23T16:17:08.518Z,13.18
2023-02-23T16:19:41.225Z,15.02
2023-02-23T16:22:19.466Z,13.20
2023-02-23T16:24:52.627Z,13.50
2023-02-23T16:27:20.112Z,11.27
2023-02-23T16:29:47.031Z,12.75
2023-02-23T16:32:25.369Z,18.17
2023-02-23T16:35:00.146Z,14.60
2023-02-23T16:37:28.059Z,15.38
2023-02-23T16:39:58.179Z,17.17
2023-02-23T16:42:33.124Z,17.73
2023-02-23T16:45:01.027Z,12.73
2023-02-23T16:47:47.721Z,11.23
2023-02-23T16:50:21.538Z,23.17
2023-02-23T16:52:53.278Z,14.73
2023-02-23T16:55:29.017Z,16.45
2023-02-23T16:58:02.528Z,15.45
2023-02-23T17:00:31.732Z,16.20
2023-02-23T17:03:01.074Z,14.25
2023-02-23T17:05:28.715Z,10.60
2023-02-23T17:07:56.804Z,17.55
2023-02-23T17:10:29.796Z,16.92
2023-02-23T17:12:59.096Z,18.40
2023-02-23T17:15:29.333Z,12.57
2023-02-23T17:17:56.595Z,9.77
2023-02-23T17:20:25.976Z,20.55
2023-02-23T17:22:57.455Z,17.00
2023-02-23T17:25:26.570Z,20.33
2023-02-23T17:27:54.233Z,15.57
2023-02-23T17:30:21.545Z,10.32
2023-02-23T17:32:49.096Z,15.40
2023-02-23T17:35:16.209Z,22.80
2023-02-23T17:37:43.284Z,11.53
2023-02-23T17:40:13.064Z,18.77
2023-02-23T17:42:40.043Z,19.45
2023-02-23T17:45:08.000Z,17.92
2023-02-23T17:47:36.883Z,8.40
2023-02-23T17:50:03.584Z,16.40
2023-02-23T17:52:30.353Z,16.33
2023-02-23T17:54:57.947Z,14.07
2023-02-23T17:57:30.447Z,15.63
2023-02-23T17:59:57.791Z,15.38
2023-02-23T18:02:27.361Z,10.67
2023-02-23T18:04:53.901Z,16.05
2023-02-23T18:07:21.670Z,12.55
2023-02-23T18:09:50.201Z,15.57
2023-02-23T18:12:18.281Z,17.23
2023-02-23T18:14:46.149Z,14.97
2023-02-23T18:17:13.746Z,17.17
2023-02-23T18:19:40.294Z,16.77
2023-02-23T18:22:07.025Z,12.43
2023-02-23T18:24:33.827Z,11.32
2023-02-23T18:27:04.151Z,16.23
2023-02-23T18:29:34.042Z,14.25
2023-02-23T18:32:02.705Z,8.45
2023-02-23T18:34:30.522Z,13.43
2023-02-23T18:36:58.672Z,12.85
2023-02-23T18:39:25.310Z,17.10
2023-02-23T18:41:52.124Z,15.82
2023-02-23T18:44:18.986Z,18.58
2023-02-23T18:46:46.460Z,11.48
2023-02-23T18:49:15.531Z,12.13
2023-02-23T18:51:43.364Z,14.83
2023-02-23T18:54:13.116Z,19.52
2023-02-23T18:56:40.396Z,11.25
2023-02-23T18:59:07.168Z,19.10
2023-02-23T19:01:35.054Z,12.13
2023-02-23T19:04:02.505Z,14.17
2023-02-23T19:06:32.567Z,10.05
2023-02-23T19:09:00.430Z,10.45
2023-02-23T19:11:32.280Z,9.60
2023-02-23T19:14:02.047Z,9.35
2023-02-23T19:16:31.093Z,10.53
2023-02-23T19:18:59.614Z,10.48
2023-02-23T19:21:26.657Z,12.52
2023-02-23T19:23:56.392Z,11.80
2023-02-23T19:26:23.847Z,5.47
2023-02-23T19:28:50.511Z,9.70
2023-02-23T19:31:21.097Z,9.52
2023-02-23T19:33:49.676Z,12.63
2023-02-23T19:36:19.572Z,10.35
2023-02-23T19:38:48.877Z,8.60
2023-02-23T19:41:20.662Z,12.73
2023-02-23T19:43:48.212Z,12.13
2023-02-23T19:46:17.322Z,13.43
2023-02-23T19:48:49.315Z,10.30
2023-02-23T19:51:15.983Z,16.42
2023-02-23T19:53:42.529Z,11.63
2023-02-23T19:56:13.094Z,5.68
2023-02-23T19:58:44.775Z,4.75
2023-02-23T20:01:14.616Z,5.25
2023-02-23T20:03:43.244Z,11.80
2023-02-23T20:06:14.648Z,9.43
2023-02-23T20:08:45.987Z,10.70
2023-02-23T20:11:12.468Z,11.13
2023-02-23T20:13:39.237Z,9.63
2023-02-23T20:16:16.705Z,9.70
2023-02-23T20:18:44.073Z,8.77
2023-02-23T20:21:17.138Z,15.75
2023-02-23T20:23:45.416Z,11.55
2023-02-23T20:26:16.738Z,11.98
2023-02-23T20:28:43.367Z,11.18
2023-02-23T20:31:30.487Z,7.13
2023-02-23T20:33:58.933Z,11.40
2023-02-23T20:36:26.521Z,8.35
2023-02-23T20:38:53.213Z,8.98
2023-02-23T20:41:20.721Z,8.05
2023-02-23T20:43:47.442Z,10.47
2023-02-23T20:46:16.624Z,13.10
2023-02-23T20:48:44.095Z,9.35
2023-02-23T20:51:15.175Z,7.18
2023-02-23T20:53:46.715Z,11.38
2023-02-23T20:56:15.546Z,11.37
2023-02-23T20:58:42.379Z,7.25
2023-02-23T21:01:23.164Z,13.32
2023-02-23T21:03:54.194Z,10.00
2023-02-23T21:06:24.615Z,11.75
2023-02-23T21:08:55.804Z,9.67
2023-02-23T21:11:26.903Z,8.05
2023-02-23T21:13:54.124Z,8.02
2023-02-23T21:16:23.661Z,8.90
2023-02-23T21:18:54.007Z,8.52
2023-02-23T21:21:21.031Z,17.23
2023-02-23T21:23:48.838Z,12.63
2023-02-23T21:26:16.035Z,6.43
2023-02-23T21:28:44.360Z,10.60
2023-02-23T21:31:12.954Z,9.32
2023-02-23T21:33:42.770Z,8.40
2023-02-23T21:36:11.273Z,9.68
2023-02-23T21:38:43.439Z,11.40
2023-02-23T21:41:15.381Z,8.45
2023-02-23T21:43:43.351Z,10.43
2023-02-23T21:46:16.557Z,11.67
2023-02-23T21:48:43.762Z,7.57
2023-02-23T21:51:12.826Z,8.68
2023-02-23T21:53:43.360Z,12.90
2023-02-23T21:56:14.039Z,8.02
2023-02-23T21:58:49.020Z,8.73
2023-02-23T22:01:18.415Z,9.18
2023-02-23T22:03:46.370Z,10.18
2023-02-23T22:06:17.449Z,6.95
2023-02-23T22:08:44.941Z,8.10
2023-02-23T22:11:19.947Z,8.60
2023-02-23T22:13:48.971Z,12.80
2023-02-23T22:16:17.878Z,9.85
2023-02-23T22:18:44.610Z,12.25
2023-02-23T22:21:14.646Z,10.05
2023-02-23T22:23:43.835Z,12.73
2023-02-23T22:26:10.532Z,12.40
2023-02-23T22:28:37.310Z,11.32
2023-02-23T22:31:07.203Z,12.45
2023-02-23T22:33:35.043Z,10.27
2023-02-23T22:36:03.725Z,9.77
2023-02-23T22:38:30.774Z,9.55
2023-02-23T22:40:57.341Z,9.10
2023-02-23T22:43:23.771Z,9.93
2023-02-23T22:45:54.971Z,13.57
2023-02-23T22:48:23.251Z,11.97
2023-02-23T22:50:50.804Z,10.18
2023-02-23T22:53:17.933Z,13.00
2023-02-23T22:55:49.367Z,9.07
2023-02-23T22:58:16.174Z,9.65
2023-02-23T23:01:01.978Z,9.70
2023-02-23T23:03:32.324Z,6.35
2023-02-23T23:06:02.524Z,11.77
2023-02-23T23:08:30.970Z,5.95
2023-02-23T23:11:04.009Z,10.05
2023-02-23T23:13:33.272Z,9.27
2023-02-23T23:16:07.808Z,6.65
2023-02-23T23:18:36.161Z,10.05
2023-02-23T23:21:13.161Z,12.25
2023-02-23T23:23:42.480Z,6.53
2023-02-23T23:26:19.996Z,9.97
2023-02-23T23:28:58.931Z,8.55
2023-02-23T23:31:29.304Z,9.98
2023-02-23T23:34:00.450Z,7.93
2023-02-23T23:36:32.068Z,5.18
2023-02-23T23:39:01.273Z,6.57
2023-02-23T23:41:38.182Z,10.35
2023-02-23T23:44:05.779Z,9.27
2023-02-23T23:46:38.435Z,6.55
2023-02-23T23:49:08.231Z,11.38
2023-02-23T23:51:44.869Z,10.27
2023-02-23T23:54:19.957Z,7.93
2023-02-23T23:56:46.529Z,7.22
2023-02-23T23:59:20.534Z,6.60
